createdAt,value
2022-11-29T00:01:20.707Z,101705.88
2022-11-29T00:03:48.031Z,101730.81
2022-11-29T00:06:18.244Z,101725.84
2022-11-29T00:08:46.105Z,101725.84
2022-11-29T00:11:35.471Z,101721.66
2022-11-29T00:14:03.111Z,101712.53
2022-11-29T00:16:30.706Z,101719.19
2022-11-29T00:18:58.290Z,101721.69
2022-11-29T00:21:27.004Z,101711.69
2022-11-29T00:23:54.233Z,101715.03
2022-11-29T00:26:21.692Z,101709.22
2022-11-29T00:28:49.018Z,101715.88
2022-11-29T00:31:18.002Z,101709.19
2022-11-29T00:33:45.469Z,101709.19
2022-11-29T00:36:13.526Z,101706.69
2022-11-29T00:38:42.452Z,101703.38
2022-11-29T00:41:10.332Z,101705.88
2022-11-29T00:43:38.256Z,101697.56
2022-11-29T00:46:06.080Z,101703.38
2022-11-29T00:48:33.638Z,101714.22
2022-11-29T00:51:00.859Z,101705.88
2022-11-29T00:53:28.251Z,101705.06
2022-11-29T00:55:57.291Z,101706.72
2022-11-29T00:58:24.686Z,101701.72
2022-11-29T01:00:55.096Z,101703.41
2022-11-29T01:03:22.660Z,101696.72
2022-11-29T01:05:50.616Z,101704.22
2022-11-29T01:08:18.442Z,101704.22
2022-11-29T01:10:45.651Z,101710.03
2022-11-29T01:13:14.468Z,101708.34
2022-11-29T01:15:42.270Z,101707.53
2022-11-29T01:18:09.516Z,101698.41
2022-11-29T01:20:36.904Z,101701.72
2022-11-29T01:23:04.188Z,101695.91
2022-11-29T01:25:32.275Z,101697.56
2022-11-29T01:27:59.692Z,101700.91
2022-11-29T01:30:28.489Z,101695.06
2022-11-29T01:32:55.875Z,101688.41
2022-11-29T01:35:23.094Z,101688.41
2022-11-29T01:37:50.305Z,101691.72
2022-11-29T01:40:17.587Z,101696.75
2022-11-29T01:42:44.954Z,101693.41
2022-11-29T01:45:22.334Z,101682.63
2022-11-29T01:47:54.945Z,101687.59
2022-11-29T01:50:22.651Z,101708.38
2022-11-29T01:52:50.366Z,101707.56
2022-11-29T01:55:18.659Z,101700.06
2022-11-29T01:57:46.177Z,101696.75
2022-11-29T02:00:16.838Z,101709.19
2022-11-29T02:02:47.320Z,101703.38
2022-11-29T02:05:18.674Z,101675.94
2022-11-29T02:07:51.229Z,101710.03
2022-11-29T02:10:19.597Z,101719.19
2022-11-29T02:12:59.664Z,101705.81
2022-11-29T02:15:35.975Z,101701.66
2022-11-29T02:18:07.962Z,101709.97
2022-11-29T02:21:04.089Z,101712.50
2022-11-29T02:24:04.575Z,101710.84
2022-11-29T02:26:59.635Z,101707.50
2022-11-29T02:29:59.887Z,101695.84
2022-11-29T02:33:12.810Z,101704.16
2022-11-29T02:36:01.998Z,101705.78
2022-11-29T02:38:53.487Z,101706.63
2022-11-29T02:41:42.288Z,101705.78
2022-11-29T02:44:34.410Z,101713.28
2022-11-29T02:47:15.752Z,101714.13
2022-11-29T02:50:07.097Z,101704.94
2022-11-29T02:52:44.856Z,101712.41
2022-11-29T02:55:21.494Z,101707.44
2022-11-29T02:57:58.193Z,101706.56
2022-11-29T03:00:25.836Z,101706.59
2022-11-29T03:03:00.028Z,101719.06
2022-11-29T03:05:40.349Z,101712.41
2022-11-29T03:08:16.661Z,101705.78
2022-11-29T03:10:56.665Z,101701.59
2022-11-29T03:13:28.053Z,101724.06
2022-11-29T03:16:03.406Z,101699.94
2022-11-29T03:18:39.463Z,101676.63
2022-11-29T03:21:19.077Z,101702.41
2022-11-29T03:23:50.693Z,101705.78
2022-11-29T03:26:24.501Z,101694.06
2022-11-29T03:29:07.375Z,101716.53
2022-11-29T03:31:38.753Z,101703.22
2022-11-29T03:34:16.514Z,101709.06
2022-11-29T03:36:53.549Z,101720.72
2022-11-29T03:39:28.091Z,101719.88
2022-11-29T03:42:00.127Z,101734.81
2022-11-29T03:44:31.968Z,101718.19
2022-11-29T03:47:04.855Z,101729.03
2022-11-29T03:49:35.829Z,101727.34
2022-11-29T03:52:15.439Z,101733.94
2022-11-29T03:54:53.476Z,101730.59
2022-11-29T03:57:30.638Z,101714.78
2022-11-29T04:00:04.362Z,101721.47
2022-11-29T04:03:15.823Z,101738.91
2022-11-29T04:06:07.315Z,101733.91
2022-11-29T04:09:16.029Z,101755.47
2022-11-29T04:12:08.825Z,101747.13
2022-11-29T04:15:19.304Z,101747.13
2022-11-29T04:18:12.354Z,101735.44
2022-11-29T04:21:14.544Z,101751.28
2022-11-29T04:24:02.429Z,101717.22
2022-11-29T04:27:01.203Z,101739.69
2022-11-29T04:29:48.594Z,101738.00
2022-11-29T04:32:41.145Z,101737.16
2022-11-29T04:35:38.436Z,101741.34
2022-11-29T04:38:47.267Z,101743.84
2022-11-29T04:41:26.560Z,101739.66
2022-11-29T04:44:09.918Z,101746.31
2022-11-29T04:46:52.911Z,101748.75
2022-11-29T04:49:36.583Z,101752.91
2022-11-29T04:52:31.781Z,101757.03
2022-11-29T04:55:12.693Z,101772.78
2022-11-29T04:57:47.711Z,101768.59
2022-11-29T05:00:19.370Z,101778.53
2022-11-29T05:02:54.676Z,101775.22
2022-11-29T05:05:31.342Z,101780.19
2022-11-29T05:08:23.827Z,101770.22
2022-11-29T05:11:03.994Z,101793.50
2022-11-29T05:13:34.329Z,101798.53
2022-11-29T05:16:16.020Z,101796.00
2022-11-29T05:19:15.120Z,101801.84
2022-11-29T05:21:52.931Z,101803.53
2022-11-29T05:24:35.671Z,101796.00
2022-11-29T05:27:13.712Z,101806.81
2022-11-29T05:29:46.505Z,101796.00
2022-11-29T05:32:28.687Z,101815.09
2022-11-29T05:35:27.972Z,101806.72
2022-11-29T05:38:03.418Z,101808.31
2022-11-29T05:40:53.985Z,101813.28
2022-11-29T05:43:46.022Z,101825.66
2022-11-29T05:46:20.507Z,101817.31
2022-11-29T05:48:56.940Z,101822.22
2022-11-29T05:51:38.217Z,101824.72
2022-11-29T05:54:18.415Z,101810.47
2022-11-29T05:56:48.692Z,101820.56
2022-11-29T05:59:19.598Z,101822.16
2022-11-29T06:01:56.278Z,101811.34
2022-11-29T06:04:32.310Z,101823.00
2022-11-29T06:07:10.624Z,101812.22
2022-11-29T06:09:44.481Z,101799.66
2022-11-29T06:12:20.861Z,101811.34
2022-11-29T06:15:10.580Z,101805.47
2022-11-29T06:17:53.650Z,101821.34
2022-11-29T06:20:35.177Z,101832.16
2022-11-29T06:23:31.445Z,101829.69
2022-11-29T06:26:11.178Z,101827.13
2022-11-29T06:28:51.866Z,101840.41
2022-11-29T06:31:24.551Z,101858.63
2022-11-29T06:33:59.092Z,101835.28
2022-11-29T06:36:31.944Z,101856.13
2022-11-29T06:39:01.200Z,101847.78
2022-11-29T06:41:29.196Z,101853.59
2022-11-29T06:43:57.281Z,101860.31
2022-11-29T06:46:40.337Z,101861.09
2022-11-29T06:49:13.129Z,101860.28
2022-11-29T06:51:52.034Z,101859.47
2022-11-29T06:54:47.207Z,101852.75
2022-11-29T06:57:20.280Z,101854.38
2022-11-29T07:00:01.139Z,101862.69
2022-11-29T07:02:46.585Z,101853.41
2022-11-29T07:05:18.429Z,101836.72
2022-11-29T07:07:47.274Z,101859.22
2022-11-29T07:10:18.552Z,101850.84
2022-11-29T07:12:47.774Z,101863.25
2022-11-29T07:15:17.812Z,101849.19
2022-11-29T07:17:57.147Z,101861.63
2022-11-29T07:20:37.279Z,101865.72
2022-11-29T07:23:13.421Z,101882.22
2022-11-29T07:25:51.965Z,101880.53
2022-11-29T07:28:30.896Z,101864.72
2022-11-29T07:31:07.496Z,101864.91
2022-11-29T07:33:44.163Z,101878.16
2022-11-29T07:36:18.631Z,101874.00
2022-11-29T07:38:57.903Z,101877.19
2022-11-29T07:41:35.632Z,101873.94
2022-11-29T07:44:12.644Z,101869.81
2022-11-29T07:46:39.991Z,101879.88
2022-11-29T07:49:10.334Z,101876.53
2022-11-29T07:51:37.949Z,101865.69
2022-11-29T07:54:05.868Z,101868.94
2022-11-29T07:56:34.627Z,101887.22
2022-11-29T07:59:02.030Z,101873.09
2022-11-29T08:01:29.290Z,101888.78
2022-11-29T08:03:56.886Z,101863.81
2022-11-29T08:06:25.445Z,101867.28
2022-11-29T08:08:52.855Z,101876.44
2022-11-29T08:11:20.094Z,101882.22
2022-11-29T08:13:48.724Z,101881.41
2022-11-29T08:16:17.661Z,101883.16
2022-11-29T08:18:45.374Z,101869.97
2022-11-29T08:21:18.102Z,101874.16
2022-11-29T08:23:45.567Z,101870.84
2022-11-29T08:26:13.045Z,101874.16
2022-11-29T08:28:40.365Z,101883.13
2022-11-29T08:31:11.167Z,101887.28
2022-11-29T08:33:40.538Z,101884.00
2022-11-29T08:36:10.188Z,101879.03
2022-11-29T08:38:38.208Z,101872.44
2022-11-29T08:41:08.055Z,101867.56
2022-11-29T08:43:36.129Z,101872.56
2022-11-29T08:46:03.842Z,101875.88
2022-11-29T08:48:32.944Z,101880.84
2022-11-29T08:51:00.464Z,101878.38
2022-11-29T08:53:43.418Z,101882.53
2022-11-29T08:56:53.309Z,101880.00
2022-11-29T08:58:59.883Z,101877.44
2022-11-29T09:01:27.419Z,101887.41
2022-11-29T09:04:07.149Z,101872.50
2022-11-29T09:06:38.343Z,101861.63
2022-11-29T09:09:06.619Z,101886.63
2022-11-29T09:11:35.561Z,101875.84
2022-11-29T09:14:05.030Z,101862.53
2022-11-29T09:16:34.448Z,101867.50
2022-11-29T09:19:03.793Z,101885.88
2022-11-29T09:21:37.199Z,101881.72
2022-11-29T09:24:06.607Z,101875.13
2022-11-29T09:26:36.944Z,101875.13
2022-11-29T09:29:06.163Z,101876.03
2022-11-29T09:31:34.777Z,101881.06
2022-11-29T09:34:03.497Z,101872.88
2022-11-29T09:36:31.665Z,101876.97
2022-11-29T09:38:59.362Z,101874.50
2022-11-29T09:41:43.069Z,101867.91
2022-11-29T09:44:19.742Z,101865.44
2022-11-29T09:46:58.789Z,101865.47
2022-11-29T09:49:47.122Z,101861.31
2022-11-29T09:52:25.541Z,101858.84
2022-11-29T09:55:00.978Z,101853.00
2022-11-29T09:57:41.384Z,101850.53
2022-11-29T10:00:17.067Z,101856.34
2022-11-29T10:02:49.509Z,101861.34
2022-11-29T10:05:24.684Z,101852.25
2022-11-29T10:07:59.904Z,101856.34
2022-11-29T10:10:32.985Z,101853.91
2022-11-29T10:13:05.739Z,101841.38
2022-11-29T10:15:39.407Z,101858.00
2022-11-29T10:18:17.094Z,101851.38
2022-11-29T10:20:49.557Z,101855.59
2022-11-29T10:23:24.273Z,101847.31
2022-11-29T10:25:53.841Z,101844.00
2022-11-29T10:28:24.085Z,101836.41
2022-11-29T10:30:53.802Z,101844.88
2022-11-29T10:33:25.647Z,101837.47
2022-11-29T10:35:57.959Z,101848.28
2022-11-29T10:38:32.987Z,101850.81
2022-11-29T10:41:07.205Z,101841.72
2022-11-29T10:43:34.736Z,101840.06
2022-11-29T10:46:02.676Z,101848.38
2022-11-29T10:48:34.356Z,101850.88
2022-11-29T10:51:03.231Z,101845.06
2022-11-29T10:53:33.035Z,101845.06
2022-11-29T10:56:05.921Z,101848.41
2022-11-29T10:58:33.281Z,101839.28
2022-11-29T11:01:02.531Z,101837.66
2022-11-29T11:03:33.720Z,101838.53
2022-11-29T11:06:09.876Z,101854.34
2022-11-29T11:08:38.913Z,101836.91
2022-11-29T11:11:08.457Z,101845.25
2022-11-29T11:13:37.521Z,101827.00
2022-11-29T11:16:15.053Z,101838.72
2022-11-29T11:18:43.100Z,101841.22
2022-11-29T11:21:14.227Z,101840.44
2022-11-29T11:23:51.891Z,101832.91
2022-11-29T11:26:19.688Z,101836.22
2022-11-29T11:28:52.663Z,101840.31
2022-11-29T11:31:28.914Z,101840.31
2022-11-29T11:33:56.447Z,101841.97
2022-11-29T11:36:27.436Z,101821.16
2022-11-29T11:38:56.620Z,101841.13
2022-11-29T11:41:46.713Z,101834.47
2022-11-29T11:44:46.850Z,101843.63
2022-11-29T11:47:18.020Z,101833.59
2022-11-29T11:49:53.620Z,101845.25
2022-11-29T11:52:24.953Z,101841.09
2022-11-29T11:54:55.008Z,101851.06
2022-11-29T11:57:24.000Z,101853.53
2022-11-29T11:59:52.727Z,101856.84
2022-11-29T12:02:29.291Z,101859.25
2022-11-29T12:05:00.983Z,101837.50
2022-11-29T12:08:06.155Z,101859.16
2022-11-29T12:10:27.264Z,101866.66
2022-11-29T12:12:56.878Z,101855.81
2022-11-29T12:15:28.769Z,101866.63
2022-11-29T12:18:01.988Z,101858.25
2022-11-29T12:20:33.915Z,101860.66
2022-11-29T12:23:23.460Z,101838.19
2022-11-29T12:25:56.348Z,101840.75
2022-11-29T12:28:28.641Z,101851.50
2022-11-29T12:31:05.185Z,101835.63
2022-11-29T12:33:43.224Z,101855.53
2022-11-29T12:36:26.313Z,101864.63
2022-11-29T12:39:31.320Z,101866.97
2022-11-29T12:42:09.634Z,101852.81
2022-11-29T12:44:47.336Z,101846.06
2022-11-29T12:47:39.994Z,101867.66
2022-11-29T12:50:39.647Z,101876.81
2022-11-29T12:53:27.101Z,101872.63
2022-11-29T12:56:06.914Z,101872.56
2022-11-29T12:58:47.067Z,101875.81
2022-11-29T13:01:21.327Z,101874.09
2022-11-29T13:03:58.868Z,101858.31
2022-11-29T13:06:33.594Z,101876.63
2022-11-29T13:09:18.039Z,101878.22
2022-11-29T13:11:54.043Z,101884.00
2022-11-29T13:14:42.485Z,101864.06
2022-11-29T13:17:27.122Z,101875.53
2022-11-29T13:19:57.846Z,101857.09
2022-11-29T13:22:41.854Z,101874.56
2022-11-29T13:25:17.130Z,101881.16
2022-11-29T13:27:58.526Z,101865.25
2022-11-29T13:30:26.314Z,101876.88
2022-11-29T13:32:59.107Z,101881.84
2022-11-29T13:35:35.471Z,101881.88
2022-11-29T13:38:10.476Z,101876.00
2022-11-29T13:40:46.650Z,101874.34
2022-11-29T13:43:23.990Z,101876.78
2022-11-29T13:45:56.709Z,101877.56
2022-11-29T13:48:37.264Z,101863.97
2022-11-29T13:51:26.964Z,101881.56
2022-11-29T13:53:55.632Z,101884.84
2022-11-29T13:56:36.191Z,101878.25
2022-11-29T13:59:15.225Z,101879.72
2022-11-29T14:01:48.208Z,101883.97
2022-11-29T14:04:25.909Z,101864.72
2022-11-29T14:07:07.118Z,101878.94
2022-11-29T14:09:41.286Z,101869.66
2022-11-29T14:12:29.930Z,101883.72
2022-11-29T14:15:03.358Z,101861.31
2022-11-29T14:17:48.484Z,101872.13
2022-11-29T14:20:45.244Z,101877.06
2022-11-29T14:23:29.724Z,101871.16
2022-11-29T14:26:29.280Z,101879.50
2022-11-29T14:28:57.759Z,101874.31
2022-11-29T14:32:01.692Z,101884.38
2022-11-29T14:34:51.074Z,101873.59
2022-11-29T14:37:34.769Z,101871.91
2022-11-29T14:40:11.918Z,101877.66
2022-11-29T14:42:46.611Z,101876.81
2022-11-29T14:45:25.062Z,101878.44
2022-11-29T14:47:52.816Z,101876.72
2022-11-29T14:50:34.857Z,101875.88
2022-11-29T14:53:03.756Z,101881.72
2022-11-29T14:55:37.035Z,101871.78
2022-11-29T14:58:16.370Z,101876.78
2022-11-29T15:01:09.667Z,101870.06
2022-11-29T15:03:47.280Z,101869.13
2022-11-29T15:06:24.236Z,101874.06
2022-11-29T15:08:57.625Z,101855.75
2022-11-29T15:11:37.359Z,101877.31
2022-11-29T15:14:07.697Z,101874.75
2022-11-29T15:16:56.467Z,101843.00
2022-11-29T15:19:59.115Z,101871.41
2022-11-29T15:22:35.606Z,101883.84
2022-11-29T15:25:10.659Z,101873.03
2022-11-29T15:27:48.972Z,101874.59
2022-11-29T15:30:20.798Z,101882.00
2022-11-29T15:32:48.279Z,101877.00
2022-11-29T15:35:18.695Z,101887.72
2022-11-29T15:37:49.031Z,101886.09
2022-11-29T15:40:18.508Z,101889.41
2022-11-29T15:42:50.812Z,101893.53
2022-11-29T15:45:26.331Z,101881.91
2022-11-29T15:47:54.361Z,101881.09
2022-11-29T15:50:26.377Z,101885.19
2022-11-29T15:52:59.119Z,101878.63
2022-11-29T15:55:27.187Z,101876.91
2022-11-29T15:57:58.061Z,101873.53
2022-11-29T16:00:28.237Z,101870.22
2022-11-29T16:02:59.478Z,101870.22
2022-11-29T16:05:30.472Z,101868.47
2022-11-29T16:08:02.076Z,101866.81
2022-11-29T16:10:35.467Z,101861.91
2022-11-29T16:13:06.104Z,101868.53
2022-11-29T16:15:35.814Z,101845.06
2022-11-29T16:18:04.605Z,101854.16
2022-11-29T16:20:32.396Z,101870.81
2022-11-29T16:23:11.351Z,101872.47
2022-11-29T16:25:55.999Z,101859.81
2022-11-29T16:28:25.572Z,101889.69
2022-11-29T16:30:52.975Z,101891.38
2022-11-29T16:33:24.022Z,101872.19
2022-11-29T16:35:51.721Z,101879.78
2022-11-29T16:38:22.777Z,101891.47
2022-11-29T16:41:21.268Z,101879.91
2022-11-29T16:43:54.071Z,101874.91
2022-11-29T16:46:30.719Z,101870.78
2022-11-29T16:49:01.016Z,101862.34
2022-11-29T16:51:37.700Z,101877.38
2022-11-29T16:54:24.780Z,101878.22
2022-11-29T16:56:52.665Z,101886.44
2022-11-29T16:59:26.826Z,101880.50
2022-11-29T17:02:03.182Z,101880.50
2022-11-29T17:04:37.920Z,101878.91
2022-11-29T17:07:46.856Z,101876.38
2022-11-29T17:10:23.953Z,101864.75
2022-11-29T17:12:57.090Z,101875.63
2022-11-29T17:15:55.386Z,101875.63
2022-11-29T17:18:30.370Z,101873.09
2022-11-29T17:21:01.030Z,101872.31
2022-11-29T17:23:39.399Z,101866.53
2022-11-29T17:26:14.029Z,101873.97
2022-11-29T17:28:48.926Z,101868.19
2022-11-29T17:31:21.138Z,101874.75
2022-11-29T17:36:49.484Z,101876.34
2022-11-29T17:40:06.934Z,101877.19
2022-11-29T17:42:49.118Z,101881.34
2022-11-29T17:45:17.055Z,101876.38
2022-11-29T17:47:46.043Z,101871.38
2022-11-29T17:50:15.443Z,101874.66
2022-11-29T17:52:49.118Z,101865.50
2022-11-29T17:55:20.929Z,101852.94
2022-11-29T17:57:58.827Z,101878.75
2022-11-29T18:00:33.062Z,101871.22
2022-11-29T18:03:10.552Z,101881.13
2022-11-29T18:05:42.428Z,101883.53
2022-11-29T18:08:11.398Z,101891.88
2022-11-29T18:10:41.058Z,101868.56
2022-11-29T18:13:17.539Z,101891.84
2022-11-29T18:19:31.513Z,101893.53
2022-11-29T18:22:04.298Z,101894.28
2022-11-29T18:24:42.099Z,101895.13
2022-11-29T18:27:13.383Z,101890.09
2022-11-29T18:29:51.120Z,101884.25
2022-11-29T18:35:47.728Z,101889.94
2022-11-29T18:39:16.812Z,101892.34
2022-11-29T18:41:52.937Z,101884.81
2022-11-29T18:44:30.861Z,101898.06
2022-11-29T18:47:05.019Z,101898.06
2022-11-29T18:49:34.283Z,101892.31
2022-11-29T18:52:08.251Z,101893.13
2022-11-29T18:54:49.641Z,101888.16
2022-11-29T18:57:21.544Z,101884.81
2022-11-29T18:59:54.666Z,101882.34
2022-11-29T19:03:15.716Z,101882.38
2022-11-29T19:05:51.609Z,101877.38
2022-11-29T19:08:19.455Z,101873.94
2022-11-29T19:10:47.155Z,101878.97
2022-11-29T19:13:23.894Z,101878.97
2022-11-29T19:15:57.994Z,101879.81
2022-11-29T19:18:29.356Z,101888.06
2022-11-29T19:21:27.173Z,101882.25
2022-11-29T19:24:35.730Z,101864.72
2022-11-29T19:27:30.786Z,101874.78
2022-11-29T19:30:06.020Z,101873.00
2022-11-29T19:32:59.493Z,101882.06
2022-11-29T19:35:35.509Z,101875.47
2022-11-29T19:38:30.306Z,101883.72
2022-11-29T19:41:14.121Z,101888.56
2022-11-29T19:43:49.245Z,101887.81
2022-11-29T19:46:23.553Z,101866.84
2022-11-29T19:48:53.722Z,101882.63
2022-11-29T19:51:24.283Z,101883.44
2022-11-29T19:53:59.274Z,101888.34
2022-11-29T19:56:34.932Z,101895.78
2022-11-29T19:59:11.543Z,101885.84
2022-11-29T20:01:42.855Z,101880.88
2022-11-29T20:04:17.666Z,101889.91
2022-11-29T20:07:12.874Z,101884.94
2022-11-29T20:09:47.147Z,101878.34
2022-11-29T20:12:22.681Z,101887.47
2022-11-29T20:14:52.204Z,101885.81
2022-11-29T20:17:24.964Z,101884.97
2022-11-29T20:19:55.185Z,101884.97
2022-11-29T20:22:25.784Z,101888.25
2022-11-29T20:24:54.740Z,101882.34
2022-11-29T20:27:23.570Z,101878.13
2022-11-29T20:29:51.029Z,101888.16
2022-11-29T20:32:18.736Z,101898.06
2022-11-29T20:34:46.714Z,101888.16
2022-11-29T20:37:36.039Z,101880.72
2022-11-29T20:40:09.485Z,101883.94
2022-11-29T20:42:52.508Z,101883.94
2022-11-29T20:45:20.785Z,101883.91
2022-11-29T20:47:53.142Z,101884.75
2022-11-29T20:50:23.763Z,101860.31
2022-11-29T20:53:06.045Z,101876.31
2022-11-29T20:55:33.694Z,101890.53
2022-11-29T20:58:01.026Z,101884.75
2022-11-29T21:00:34.723Z,101884.69
2022-11-29T21:03:03.630Z,101892.09
2022-11-29T21:05:30.852Z,101888.75
2022-11-29T21:07:59.707Z,101897.03
2022-11-29T21:10:27.218Z,101894.44
2022-11-29T21:12:56.219Z,101900.28
2022-11-29T21:15:24.395Z,101891.97
2022-11-29T21:17:52.288Z,101890.28
2022-11-29T21:20:22.883Z,101894.38
2022-11-29T21:22:57.375Z,101886.97
2022-11-29T21:25:37.878Z,101891.97
2022-11-29T21:28:10.940Z,101887.75
2022-11-29T21:30:38.997Z,101886.19
2022-11-29T21:33:06.819Z,101892.06
2022-11-29T21:35:34.308Z,101889.59
2022-11-29T21:38:02.673Z,101888.75
2022-11-29T21:40:31.315Z,101894.53
2022-11-29T21:42:59.093Z,101897.81
2022-11-29T21:45:26.547Z,101896.81
2022-11-29T21:47:53.746Z,101901.88
2022-11-29T21:50:21.239Z,101898.47
2022-11-29T21:52:51.753Z,101895.13
2022-11-29T21:55:19.113Z,101897.59
2022-11-29T21:57:47.718Z,101897.50
2022-11-29T22:00:15.891Z,101895.94
2022-11-29T22:02:43.350Z,101890.97
2022-11-29T22:05:10.927Z,101901.66
2022-11-29T22:07:38.196Z,101890.94
2022-11-29T22:10:12.929Z,101904.09
2022-11-29T22:12:51.289Z,101904.94
2022-11-29T22:15:24.752Z,101906.53
2022-11-29T22:17:53.485Z,101909.75
2022-11-29T22:20:20.975Z,101904.78
2022-11-29T22:22:48.737Z,101905.53
2022-11-29T22:25:16.238Z,101898.03
2022-11-29T22:27:43.806Z,101902.13
2022-11-29T22:30:12.209Z,101907.91
2022-11-29T22:32:40.817Z,101905.38
2022-11-29T22:35:09.209Z,101908.69
2022-11-29T22:37:36.671Z,101908.69
2022-11-29T22:40:05.782Z,101906.22
2022-11-29T22:42:33.209Z,101902.00
2022-11-29T22:45:02.257Z,101912.00
2022-11-29T22:47:30.835Z,101907.84
2022-11-29T22:49:59.719Z,101910.38
2022-11-29T22:52:27.631Z,101909.53
2022-11-29T22:54:57.622Z,101910.22
2022-11-29T22:57:27.104Z,101906.09
2022-11-29T22:59:54.336Z,101912.63
2022-11-29T23:02:21.723Z,101907.53
2022-11-29T23:04:49.260Z,101912.59
2022-11-29T23:07:18.154Z,101915.00
2022-11-29T23:09:45.470Z,101909.22
2022-11-29T23:12:12.756Z,101912.47
2022-11-29T23:14:39.994Z,101923.97
2022-11-29T23:17:07.265Z,101918.13
2022-11-29T23:19:34.553Z,101916.38
2022-11-29T23:22:01.840Z,101914.69
2022-11-29T23:24:30.945Z,101916.38
2022-11-29T23:26:58.980Z,101915.53
2022-11-29T23:29:26.261Z,101909.69
2022-11-29T23:31:53.725Z,101912.22
2022-11-29T23:34:21.135Z,101916.31
2022-11-29T23:36:52.558Z,101923.69
2022-11-29T23:39:20.738Z,101914.56
2022-11-29T23:41:49.410Z,101920.25
2022-11-29T23:44:16.738Z,101917.75
2022-11-29T23:46:43.982Z,101921.06
2022-11-29T23:49:11.298Z,101916.03
2022-11-29T23:51:38.502Z,101911.88
2022-11-29T23:54:06.092Z,101910.22
2022-11-29T23:56:35.567Z,101909.41
2022-11-29T23:59:04.505Z,101912.72
